Time;durP1;ratioP1;P1;durP2;ratioP2;P2;SDS_P1;SDS_P2;PMS_P1;PMS_P2;Temp;Humidity;BMP_temperature;BMP_pressure;BME280_temperature;BME280_humidity;BME280_pressure;Samples;Min_cycle;Max_cycle;Signal;HPM_P1;HPM_P2
2022/05/26 00:01:26;;;;;;;2.35;1.30;;;17.90;90.20;;;;;;5071194;28;20028;-74
2022/05/26 00:03:52;;;;;;;2.38;1.33;;;17.90;90.20;;;;;;5070702;28;20124;-74
2022/05/26 00:06:20;;;;;;;2.78;1.40;;;17.90;90.10;;;;;;5075843;28;20119;-74
2022/05/26 00:08:46;;;;;;;1.67;1.30;;;17.90;90.00;;;;;;5068008;28;20119;-73
2022/05/26 00:11:16;;;;;;;3.20;1.40;;;17.90;90.00;;;;;;5071990;28;20032;-73
2022/05/26 00:13:42;;;;;;;2.97;1.55;;;17.90;90.00;;;;;;5070914;28;20025;-73
2022/05/26 00:16:08;;;;;;;2.58;1.40;;;17.90;90.00;;;;;;5072272;28;20035;-73
2022/05/26 00:18:34;;;;;;;1.65;1.20;;;17.90;90.00;;;;;;5070478;28;20113;-73
2022/05/26 00:20:59;;;;;;;2.60;1.42;;;17.90;90.00;;;;;;5070555;28;20162;-74
2022/05/26 00:23:25;;;;;;;2.42;1.40;;;17.90;90.10;;;;;;5072522;28;20025;-74
2022/05/26 00:25:51;;;;;;;2.67;1.40;;;17.90;90.10;;;;;;5070754;28;20037;-74
2022/05/26 00:28:16;;;;;;;2.25;1.40;;;17.90;90.20;;;;;;5071737;28;20032;-74
2022/05/26 00:30:42;;;;;;;2.78;1.80;;;17.90;90.20;;;;;;5072263;28;20104;-73
2022/05/26 00:33:09;;;;;;;2.83;1.60;;;17.80;90.20;;;;;;5087432;28;20020;-74
2022/05/26 00:35:36;;;;;;;2.65;1.42;;;17.80;90.20;;;;;;5070414;28;20035;-73
2022/05/26 00:38:05;;;;;;;2.20;1.42;;;17.80;90.20;;;;;;5071674;28;20393;-74
2022/05/26 00:40:32;;;;;;;2.88;1.70;;;17.80;90.20;;;;;;5072053;28;20048;-74
2022/05/26 00:42:58;;;;;;;2.13;1.40;;;17.80;90.20;;;;;;5087737;28;20478;-74
2022/05/26 00:45:29;;;;;;;2.38;1.45;;;17.80;90.30;;;;;;5071736;28;20063;-73
2022/05/26 00:47:55;;;;;;;3.13;1.60;;;17.80;90.30;;;;;;5070648;28;20051;-73
2022/05/26 00:50:26;;;;;;;2.28;1.38;;;17.80;90.50;;;;;;5070430;28;20028;-73
2022/05/26 00:52:59;;;;;;;1.65;1.23;;;17.80;90.30;;;;;;5072284;28;20029;-73
2022/05/26 00:55:36;;;;;;;2.00;1.30;;;17.80;90.30;;;;;;5070651;28;20097;-74
2022/05/26 00:58:14;;;;;;;2.13;1.25;;;17.80;90.30;;;;;;5070267;28;20029;-74
2022/05/26 01:00:40;;;;;;;3.42;1.30;;;17.80;90.30;;;;;;5070322;28;20067;-73
2022/05/26 01:03:08;;;;;;;2.90;1.20;;;17.80;90.20;;;;;;5071273;28;20113;-73
2022/05/26 01:05:53;;;;;;;2.20;1.30;;;17.90;90.20;;;;;;5059704;28;20021;-74
2022/05/26 01:08:24;;;;;;;2.83;1.38;;;17.90;90.10;;;;;;5050487;28;20025;-73
2022/05/26 01:10:51;;;;;;;;;;;17.90;90.00;;;;;;5050802;28;20021;-73
2022/05/26 01:13:18;;;;;;;2.97;1.40;;;17.90;90.00;;;;;;5066448;28;19908;-73
2022/05/26 01:15:51;;;;;;;1.92;1.27;;;17.90;90.00;;;;;;5062096;28;20082;-73
2022/05/26 01:18:34;;;;;;;2.75;1.30;;;17.90;90.00;;;;;;5071389;28;20514;-73
2022/05/26 01:21:21;;;;;;;1.92;1.30;;;17.90;90.00;;;;;;5070193;28;20020;-73
2022/05/26 01:24:14;;;;;;;2.17;1.38;;;17.90;90.10;;;;;;5029883;28;20036;-74
2022/05/26 01:27:03;;;;;;;1.63;1.20;;;17.80;90.20;;;;;;5063428;28;20525;-74
2022/05/26 01:29:57;;;;;;;2.47;1.33;;;17.80;90.10;;;;;;5069993;28;20029;-73
2022/05/26 01:32:39;;;;;;;2.10;1.42;;;17.80;90.10;;;;;;5073967;28;20033;-75
2022/05/26 01:35:11;;;;;;;2.47;1.40;;;17.80;90.10;;;;;;5073731;28;20024;-74
2022/05/26 01:37:57;;;;;;;1.63;1.20;;;17.80;90.50;;;;;;5074411;28;20031;-74
2022/05/26 01:40:22;;;;;;;2.50;1.63;;;17.80;90.30;;;;;;5075243;28;20497;-73
2022/05/26 01:43:06;;;;;;;2.08;1.40;;;17.80;90.30;;;;;;5073769;28;20032;-73
2022/05/26 01:45:49;;;;;;;2.30;1.30;;;17.80;90.30;;;;;;5074942;28;20492;-74
2022/05/26 01:48:39;;;;;;;1.95;1.30;;;17.80;90.30;;;;;;5074176;28;20382;-73
2022/05/26 01:51:17;;;;;;;2.95;1.40;;;17.80;90.30;;;;;;5073316;28;20028;-74
2022/05/26 01:53:58;;;;;;;3.30;1.60;;;17.80;90.40;;;;;;5073369;28;20028;-73
2022/05/26 01:56:27;;;;;;;;;;;17.80;90.40;;;;;;5074996;28;20025;-74
2022/05/26 01:59:12;;;;;;;1.60;1.15;;;17.80;90.30;;;;;;5073787;28;20268;-74
2022/05/26 02:01:47;;;;;;;2.40;1.30;;;17.80;90.30;;;;;;5073385;28;20024;-73
2022/05/26 02:04:25;;;;;;;2.67;1.27;;;17.80;90.20;;;;;;5074526;28;20051;-74
2022/05/26 02:06:56;;;;;;;1.77;1.13;;;17.90;90.20;;;;;;5074887;28;20032;-73
2022/05/26 02:09:28;;;;;;;2.95;1.30;;;17.90;90.10;;;;;;5072839;28;20060;-73
2022/05/26 02:12:11;;;;;;;2.15;1.20;;;17.90;90.00;;;;;;5072952;28;20409;-73
2022/05/26 02:14:45;;;;;;;1.52;1.15;;;17.90;90.10;;;;;;5074017;28;20025;-74
2022/05/26 02:17:20;;;;;;;2.38;1.40;;;17.90;90.00;;;;;;5073286;28;20059;-74
2022/05/26 02:19:53;;;;;;;2.25;1.40;;;17.90;90.10;;;;;;5073374;28;20028;-74
2022/05/26 02:22:51;;;;;;;2.65;1.50;;;17.80;90.10;;;;;;5033143;28;20457;-74
2022/05/26 02:25:20;;;;;;;2.33;1.58;;;17.80;90.20;;;;;;5005494;28;20185;-74
2022/05/26 02:27:50;;;;;;;2.33;1.30;;;17.80;90.20;;;;;;5054354;28;20610;-74
2022/05/26 02:30:17;;;;;;;2.97;1.35;;;17.80;90.20;;;;;;5074311;28;20020;-74
2022/05/26 02:32:48;;;;;;;2.13;1.40;;;17.80;90.20;;;;;;5072715;28;20032;-74
2022/05/26 02:35:22;;;;;;;2.15;1.40;;;17.80;90.30;;;;;;5073149;28;20020;-74
2022/05/26 02:37:53;;;;;;;3.85;1.60;;;17.80;90.40;;;;;;5057389;28;20030;-74
2022/05/26 02:40:19;;;;;;;1.92;1.40;;;17.80;90.40;;;;;;5052234;28;20025;-74
2022/05/26 02:42:52;;;;;;;3.28;1.50;;;17.70;90.40;;;;;;5051927;28;20486;-75
2022/05/26 02:45:41;;;;;;;2.85;1.50;;;17.70;90.40;;;;;;5056865;28;20082;-74
2022/05/26 02:48:16;;;;;;;2.75;1.48;;;17.70;90.60;;;;;;5073855;28;20028;-74
2022/05/26 02:50:47;;;;;;;2.42;1.52;;;17.70;90.40;;;;;;5072655;28;20077;-74
2022/05/26 02:53:30;;;;;;;3.55;1.80;;;17.80;90.40;;;;;;5073460;28;20024;-73
2022/05/26 02:56:18;;;;;;;1.83;1.40;;;17.70;90.40;;;;;;5072894;28;20024;-75
2022/05/26 02:58:49;;;;;;;2.17;1.35;;;17.70;90.40;;;;;;5072503;28;20021;-73
2022/05/26 03:01:30;;;;;;;2.72;1.23;;;17.80;90.40;;;;;;5073734;28;20094;-74
2022/05/26 03:04:11;;;;;;;3.28;1.55;;;17.80;90.30;;;;;;5071814;28;20033;-73
2022/05/26 03:06:42;;;;;;;2.45;1.30;;;17.80;90.20;;;;;;5073598;28;20035;-73
2022/05/26 03:09:09;;;;;;;2.72;1.40;;;17.80;90.20;;;;;;5073703;28;20025;-73
2022/05/26 03:11:44;;;;;;;1.95;1.23;;;17.80;90.10;;;;;;5072301;28;20131;-74
2022/05/26 03:14:09;;;;;;;1.73;1.27;;;17.80;90.10;;;;;;5073094;28;20036;-74
2022/05/26 03:16:35;;;;;;;2.72;1.50;;;17.80;90.10;;;;;;5073458;28;20017;-73
2022/05/26 03:19:00;;;;;;;2.47;1.38;;;17.80;90.10;;;;;;5072077;28;20025;-73
2022/05/26 03:21:26;;;;;;;3.08;1.50;;;17.80;90.20;;;;;;5072138;28;20059;-74
2022/05/26 03:23:52;;;;;;;2.75;1.45;;;17.80;90.20;;;;;;5071710;28;20024;-73
2022/05/26 03:26:17;;;;;;;1.83;1.38;;;17.80;90.20;;;;;;5073118;28;20016;-74
2022/05/26 03:28:43;;;;;;;2.00;1.38;;;17.80;90.30;;;;;;5073209;28;20082;-74
2022/05/26 03:31:09;;;;;;;1.70;1.20;;;17.80;90.30;;;;;;5088838;28;20025;-74
2022/05/26 03:41:49;;;;;;;2.25;1.60;;;17.70;90.40;;;;;;5051381;28;20028;-74
2022/05/26 03:44:16;;;;;;;2.33;1.52;;;17.70;90.40;;;;;;5072948;28;20543;-73
2022/05/26 03:46:41;;;;;;;2.13;1.40;;;17.70;90.50;;;;;;5071872;28;20504;-74
2022/05/26 03:49:07;;;;;;;2.00;1.30;;;17.70;90.50;;;;;;5071634;28;20115;-74
2022/05/26 03:51:33;;;;;;;2.72;1.75;;;17.70;90.50;;;;;;5072841;28;20029;-74
2022/05/26 03:53:58;;;;;;;2.60;1.60;;;17.70;90.50;;;;;;5070020;28;20025;-74
2022/05/26 03:56:24;;;;;;;3.17;1.35;;;17.70;90.50;;;;;;5072048;28;20028;-73
2022/05/26 03:58:49;;;;;;;1.60;1.20;;;17.70;90.50;;;;;;5072531;28;20477;-74
2022/05/26 04:01:15;;;;;;;3.65;1.70;;;17.70;90.40;;;;;;5071577;28;20036;-73
2022/05/26 04:03:40;;;;;;;1.58;1.27;;;17.70;90.30;;;;;;5087247;28;20424;-74
2022/05/26 04:06:06;;;;;;;2.20;1.35;;;17.80;90.30;;;;;;5071499;28;20024;-74
2022/05/26 04:08:31;;;;;;;1.65;1.20;;;17.80;90.20;;;;;;5071774;28;20067;-73
2022/05/26 04:10:57;;;;;;;2.80;1.40;;;17.80;90.20;;;;;;5070559;28;20028;-74
2022/05/26 04:13:23;;;;;;;1.60;1.23;;;17.80;90.20;;;;;;5070488;28;20032;-74
2022/05/26 04:15:48;;;;;;;2.25;1.40;;;17.80;90.10;;;;;;5069932;28;20016;-74
2022/05/26 04:18:14;;;;;;;1.67;1.23;;;17.80;90.20;;;;;;5057217;28;20056;-74
2022/05/26 04:20:40;;;;;;;2.78;1.58;;;17.80;90.20;;;;;;5082259;28;20402;-73
2022/05/26 04:23:06;;;;;;;2.45;1.40;;;17.80;90.30;;;;;;5052322;28;20013;-73
2022/05/26 04:25:32;;;;;;;3.13;1.40;;;17.80;90.30;;;;;;5051829;28;20031;-74
2022/05/26 04:27:57;;;;;;;2.25;1.40;;;17.70;90.30;;;;;;5056187;28;20028;-74
2022/05/26 04:30:24;;;;;;;2.92;1.80;;;17.70;90.30;;;;;;5070190;28;20021;-73
2022/05/26 04:32:50;;;;;;;2.47;1.50;;;17.70;90.30;;;;;;5071540;28;20036;-75
2022/05/26 04:35:16;;;;;;;2.50;1.70;;;17.70;90.30;;;;;;5070167;28;20030;-74
2022/05/26 04:37:42;;;;;;;2.05;1.38;;;17.80;90.40;;;;;;5060911;28;20159;-74
2022/05/26 04:40:10;;;;;;;2.17;1.50;;;17.70;90.40;;;;;;5050442;28;20028;-74
2022/05/26 04:42:36;;;;;;;2.15;1.40;;;17.70;90.50;;;;;;5050306;28;20031;-74
2022/05/26 04:45:03;;;;;;;2.97;1.75;;;17.70;90.50;;;;;;5051087;28;20021;-74
2022/05/26 04:47:29;;;;;;;2.40;1.70;;;17.70;90.50;;;;;;5051674;28;20025;-74
2022/05/26 04:49:54;;;;;;;2.50;1.52;;;17.70;90.50;;;;;;5048819;28;20434;-74
2022/05/26 04:52:22;;;;;;;2.47;1.63;;;17.70;90.50;;;;;;5051583;28;20049;-73
2022/05/26 04:54:48;;;;;;;2.25;1.58;;;17.70;90.50;;;;;;5049737;28;20025;-74
2022/05/26 04:57:17;;;;;;;2.20;1.40;;;17.70;90.60;;;;;;5050570;28;20454;-74
2022/05/26 04:59:43;;;;;;;2.55;1.42;;;17.70;90.50;;;;;;5050360;28;20083;-73
2022/05/26 05:02:13;;;;;;;2.03;1.40;;;17.70;90.40;;;;;;5051550;28;20025;-74
2022/05/26 05:04:44;;;;;;;2.10;1.30;;;17.70;90.40;;;;;;5049587;28;20048;-74
2022/05/26 05:07:11;;;;;;;2.03;1.30;;;17.70;90.30;;;;;;5050312;28;20485;-74
2022/05/26 05:09:40;;;;;;;2.25;1.50;;;17.80;90.30;;;;;;5050051;28;20035;-73
2022/05/26 05:12:07;;;;;;;2.10;1.40;;;17.80;90.20;;;;;;5051761;28;20048;-74
2022/05/26 05:14:41;;;;;;;2.15;1.30;;;17.80;90.20;;;;;;5049945;28;20025;-74
2022/05/26 05:17:06;;;;;;;2.17;1.30;;;17.80;90.20;;;;;;5051481;28;20474;-73
2022/05/26 05:19:32;;;;;;;2.08;1.30;;;17.80;90.20;;;;;;5050346;28;20021;-74
2022/05/26 05:22:05;;;;;;;2.65;1.35;;;17.80;90.20;;;;;;5052568;28;20166;-74
2022/05/26 05:24:57;;;;;;;2.00;1.40;;;17.80;90.20;;;;;;5051695;28;20082;-74
2022/05/26 05:27:30;;;;;;;2.00;1.33;;;17.80;90.30;;;;;;5050983;28;20029;-73
2022/05/26 05:30:01;;;;;;;2.17;1.55;;;17.80;90.40;;;;;;5050998;28;20116;-74
2022/05/26 05:32:46;;;;;;;3.47;1.50;;;17.80;90.40;;;;;;5052043;28;20044;-74
2022/05/26 05:35:21;;;;;;;2.20;1.50;;;17.70;90.40;;;;;;5052006;28;20070;-75
2022/05/26 05:37:47;;;;;;;1.90;1.30;;;17.70;90.40;;;;;;5050632;28;20064;-75
2022/05/26 05:40:13;;;;;;;2.45;1.60;;;17.70;90.40;;;;;;5051069;28;20048;-77
2022/05/26 05:42:39;;;;;;;2.22;1.50;;;17.70;90.40;;;;;;5050886;28;20032;-75
2022/05/26 05:45:05;;;;;;;2.80;1.73;;;17.70;90.40;;;;;;5050623;28;20073;-74
2022/05/26 05:47:31;;;;;;;3.17;1.60;;;17.70;90.40;;;;;;5052061;28;20032;-74
2022/05/26 05:49:56;;;;;;;2.28;1.40;;;17.80;90.40;;;;;;5050969;28;20119;-76
2022/05/26 05:52:23;;;;;;;2.67;1.50;;;17.70;90.40;;;;;;5050878;28;20056;-75
2022/05/26 05:54:49;;;;;;;2.30;1.55;;;17.70;90.40;;;;;;5049379;28;20028;-75
2022/05/26 05:57:14;;;;;;;2.42;1.58;;;17.80;90.40;;;;;;5049713;28;20040;-75
2022/05/26 05:59:40;;;;;;;2.15;1.40;;;17.80;90.40;;;;;;5049667;28;20025;-75
2022/05/26 06:02:07;;;;;;;2.85;1.58;;;17.80;90.30;;;;;;5049728;28;20486;-75
2022/05/26 06:04:41;;;;;;;1.50;1.13;;;17.80;90.30;;;;;;5049530;28;20167;-76
2022/05/26 06:07:11;;;;;;;2.42;1.40;;;17.80;90.20;;;;;;5049533;28;20032;-75
2022/05/26 06:09:37;;;;;;;2.63;1.50;;;17.90;90.10;;;;;;5050807;28;20044;-75
2022/05/26 06:12:03;;;;;;;2.38;1.40;;;17.90;90.00;;;;;;5050884;28;20024;-75
2022/05/26 06:14:28;;;;;;;2.70;1.70;;;17.90;90.00;;;;;;5049253;28;20029;-75
2022/05/26 06:16:54;;;;;;;1.95;1.40;;;17.90;90.00;;;;;;5049595;28;20538;-75
2022/05/26 06:19:19;;;;;;;1.83;1.27;;;17.90;90.00;;;;;;5053322;28;20032;-75
2022/05/26 06:21:44;;;;;;;3.10;1.80;;;17.90;90.00;;;;;;5053448;28;20023;-75
2022/05/26 06:24:10;;;;;;;2.00;1.50;;;17.90;90.00;;;;;;5053316;28;20163;-75
2022/05/26 06:26:36;;;;;;;3.00;1.80;;;17.90;90.00;;;;;;5053360;28;20031;-75
2022/05/26 06:37:15;;;;;;;2.88;1.70;;;17.80;90.20;;;;;;5054929;28;20032;-74
2022/05/26 06:39:41;;;;;;;3.22;1.95;;;17.80;90.20;;;;;;5054637;28;20021;-75
2022/05/26 06:42:07;;;;;;;3.30;1.70;;;17.80;90.20;;;;;;5054637;28;20100;-74
2022/05/26 06:44:39;;;;;;;3.08;1.80;;;17.80;90.20;;;;;;5054019;28;20067;-75
2022/05/26 06:47:26;;;;;;;3.28;1.70;;;17.80;90.20;;;;;;5053234;28;20033;-75
2022/05/26 06:49:52;;;;;;;3.13;1.80;;;17.80;90.20;;;;;;5053009;28;20041;-75
2022/05/26 06:52:21;;;;;;;3.55;1.88;;;17.80;90.10;;;;;;5054522;28;20557;-75
2022/05/26 06:54:47;;;;;;;2.20;1.67;;;17.80;90.20;;;;;;5052946;28;20029;-75
2022/05/26 06:57:15;;;;;;;2.88;1.60;;;17.80;90.20;;;;;;5054221;28;20021;-74
2022/05/26 06:59:42;;;;;;;3.25;1.80;;;17.90;90.20;;;;;;5053288;28;20021;-75
2022/05/26 07:02:10;;;;;;;2.70;1.75;;;17.90;90.10;;;;;;5054122;28;20045;-77
2022/05/26 07:04:37;;;;;;;3.15;1.85;;;17.90;90.00;;;;;;5054236;28;20025;-75
2022/05/26 07:07:03;;;;;;;3.25;1.80;;;17.90;90.00;;;;;;5055360;28;20028;-75
2022/05/26 07:09:29;;;;;;;2.42;1.60;;;18.00;89.90;;;;;;5048571;28;20029;-75
2022/05/26 07:11:54;;;;;;;2.90;1.70;;;18.00;89.60;;;;;;5051966;28;20029;-75
2022/05/26 07:14:20;;;;;;;3.03;1.75;;;18.00;89.60;;;;;;5052756;28;20028;-74
2022/05/26 07:16:46;;;;;;;3.30;1.80;;;18.10;89.60;;;;;;5052092;28;20524;-74
2022/05/26 07:19:13;;;;;;;2.60;1.70;;;18.00;89.50;;;;;;5068909;28;20025;-74
2022/05/26 07:21:39;;;;;;;2.65;1.70;;;18.00;89.60;;;;;;5053147;28;20104;-75
2022/05/26 07:24:05;;;;;;;2.95;1.70;;;18.00;89.70;;;;;;5068174;28;20079;-75
2022/05/26 07:26:32;;;;;;;3.50;2.10;;;18.00;89.60;;;;;;5051498;28;20048;-74
2022/05/26 07:28:58;;;;;;;3.28;2.10;;;18.00;89.60;;;;;;5052700;28;20021;-74
2022/05/26 07:31:24;;;;;;;3.25;2.00;;;18.00;89.70;;;;;;5051812;28;20021;-74
2022/05/26 07:33:50;;;;;;;3.63;2.22;;;18.00;89.70;;;;;;5050810;28;20025;-74
2022/05/26 07:41:48;;;;;;;3.33;2.17;;;18.00;89.70;;;;;;5052565;28;20036;-75
2022/05/26 07:44:14;;;;;;;5.07;2.65;;;18.00;89.80;;;;;;5052109;28;20037;-75
2022/05/26 07:46:40;;;;;;;4.75;2.50;;;18.00;89.70;;;;;;5051025;28;20082;-74
2022/05/26 07:49:05;;;;;;;3.42;1.90;;;18.00;89.80;;;;;;5052434;28;20025;-74
2022/05/26 07:51:31;;;;;;;3.50;2.20;;;18.00;89.70;;;;;;5051253;28;20078;-74
2022/05/26 07:54:00;;;;;;;3.67;2.30;;;18.00;89.70;;;;;;5051925;28;20035;-74
2022/05/26 07:56:30;;;;;;;4.70;2.85;;;18.00;89.70;;;;;;5052654;28;20494;-74
2022/05/26 07:58:55;;;;;;;4.45;2.35;;;18.10;89.80;;;;;;5050001;28;20533;-75
2022/05/26 08:01:21;;;;;;;5.28;2.95;;;18.10;89.60;;;;;;5050445;28;20032;-75
2022/05/26 08:03:46;;;;;;;3.00;1.95;;;18.10;89.50;;;;;;5051929;28;20523;-74
2022/05/26 08:06:14;;;;;;;4.65;2.60;;;18.20;89.30;;;;;;5050845;28;20033;-75
2022/05/26 08:08:39;;;;;;;4.70;2.83;;;18.20;89.00;;;;;;5052415;28;20043;-74
2022/05/26 08:11:05;;;;;;;3.92;2.40;;;18.20;89.00;;;;;;5052157;28;20475;-75
2022/05/26 08:13:31;;;;;;;4.75;2.47;;;18.20;88.90;;;;;;5051554;28;20029;-73
2022/05/26 08:15:57;;;;;;;4.18;2.55;;;18.20;88.90;;;;;;5050004;28;20099;-73
2022/05/26 08:18:23;;;;;;;4.15;2.53;;;18.20;89.00;;;;;;5065004;28;20017;-71
2022/05/26 08:20:49;;;;;;;4.38;2.50;;;18.10;89.10;;;;;;5066854;28;20441;-71
2022/05/26 08:23:14;;;;;;;4.78;2.60;;;18.10;89.30;;;;;;5054651;28;20036;-74
2022/05/26 08:25:40;;;;;;;3.85;2.40;;;18.10;89.40;;;;;;5050585;28;20013;-72
2022/05/26 08:28:06;;;;;;;4.38;2.42;;;18.10;89.40;;;;;;5068139;28;20017;-73
2022/05/26 08:30:31;;;;;;;4.45;2.60;;;18.10;89.90;;;;;;5050879;28;20555;-72
2022/05/26 08:32:57;;;;;;;4.13;2.40;;;18.00;89.40;;;;;;5051756;28;20020;-72
2022/05/26 08:35:24;;;;;;;3.92;2.35;;;18.10;89.50;;;;;;5050744;28;20091;-74
2022/05/26 08:37:49;;;;;;;3.97;2.22;;;18.10;89.40;;;;;;5051003;28;20096;-74
2022/05/26 08:40:35;;;;;;;3.63;2.25;;;18.10;89.40;;;;;;5057023;28;20085;-74
2022/05/26 08:43:05;;;;;;;5.00;2.53;;;18.00;89.40;;;;;;5048545;28;20041;-75
2022/05/26 08:45:38;;;;;;;4.68;2.90;;;18.00;89.70;;;;;;5051632;28;20478;-74
2022/05/26 08:48:04;;;;;;;6.55;2.45;;;18.00;89.50;;;;;;5050793;28;20100;-75
2022/05/26 08:50:34;;;;;;;4.78;2.80;;;18.00;89.50;;;;;;5051957;28;20024;-75
2022/05/26 08:53:15;;;;;;;4.65;2.80;;;18.00;89.40;;;;;;5051686;28;20021;-75
2022/05/26 08:55:44;;;;;;;4.93;2.75;;;18.10;89.40;;;;;;5047421;28;20013;-74
2022/05/26 08:58:26;;;;;;;4.63;2.50;;;18.10;89.40;;;;;;5050440;28;20017;-75
2022/05/26 09:00:53;;;;;;;4.40;2.70;;;18.10;89.30;;;;;;5067192;28;20020;-75
2022/05/26 09:03:28;;;;;;;5.00;2.90;;;18.10;89.30;;;;;;5051468;28;20036;-75
2022/05/26 09:06:04;;;;;;;5.32;2.63;;;18.10;89.10;;;;;;5051690;28;20482;-74
2022/05/26 09:14:02;;;;;;;5.40;2.60;;;18.20;88.80;;;;;;5052512;28;20055;-74
2022/05/26 09:16:32;;;;;;;5.10;2.53;;;18.20;88.80;;;;;;5050924;28;20505;-75
2022/05/26 09:19:15;;;;;;;5.85;2.90;;;18.20;88.80;;;;;;5051797;28;20087;-74
2022/05/26 09:21:41;;;;;;;4.95;2.50;;;18.20;88.90;;;;;;5051333;28;20074;-74
2022/05/26 09:24:36;;;;;;;3.90;2.40;;;18.20;89.00;;;;;;5051020;28;20025;-75
2022/05/26 09:27:07;;;;;;;6.00;2.75;;;18.10;89.00;;;;;;5047974;28;20035;-75
2022/05/26 09:29:39;;;;;;;5.85;2.92;;;18.10;89.10;;;;;;5050162;28;20079;-75
2022/05/26 09:32:14;;;;;;;5.20;2.80;;;18.10;89.20;;;;;;5049977;28;20116;-75
2022/05/26 09:34:40;;;;;;;4.53;2.53;;;18.10;89.20;;;;;;5050494;28;20113;-75
2022/05/26 09:37:07;;;;;;;5.05;2.88;;;18.10;89.30;;;;;;5051582;28;20108;-75
2022/05/26 09:39:42;;;;;;;4.60;2.40;;;18.10;89.30;;;;;;5051513;28;20045;-75
2022/05/26 09:42:26;;;;;;;4.70;2.70;;;18.10;89.20;;;;;;5050063;28;20033;-75
2022/05/26 09:44:54;;;;;;;5.05;2.80;;;18.10;89.20;;;;;;5051736;28;20037;-74
2022/05/26 09:47:39;;;;;;;4.28;2.45;;;18.10;89.20;;;;;;5053538;28;20108;-74
2022/05/26 09:50:09;;;;;;;4.60;2.67;;;18.20;89.10;;;;;;5052982;28;20028;-75
2022/05/26 09:52:44;;;;;;;4.10;2.40;;;18.20;89.10;;;;;;5051846;28;20035;-75
2022/05/26 09:55:26;;;;;;;4.60;2.72;;;18.20;89.00;;;;;;5052616;28;20032;-75
2022/05/26 09:58:13;;;;;;;4.80;2.50;;;18.20;89.00;;;;;;5052843;28;20508;-75
2022/05/26 10:00:47;;;;;;;4.60;2.63;;;18.20;89.00;;;;;;5054285;28;20116;-74
2022/05/26 10:03:34;;;;;;;4.35;2.75;;;18.20;89.10;;;;;;5052613;28;20741;-74
2022/05/26 10:06:32;;;;;;;5.50;2.80;;;18.20;89.00;;;;;;5052773;28;20033;-76
2022/05/26 10:09:06;;;;;;;5.40;2.60;;;18.20;88.90;;;;;;5053803;28;20036;-75
2022/05/26 10:11:49;;;;;;;5.15;2.80;;;18.30;88.50;;;;;;5053284;28;20025;-75
2022/05/26 10:14:27;;;;;;;5.53;3.10;;;18.30;88.30;;;;;;5069370;28;20028;-75
2022/05/26 10:17:01;;;;;;;8.20;3.75;;;18.30;87.50;;;;;;5054301;28;20024;-76
2022/05/26 10:19:50;;;;;;;6.13;2.97;;;18.30;87.40;;;;;;5051887;28;20029;-75
2022/05/26 10:22:41;;;;;;;6.68;3.00;;;18.30;87.50;;;;;;5054073;28;20025;-75
2022/05/26 10:25:32;;;;;;;6.15;3.03;;;18.20;87.60;;;;;;5052544;28;20032;-74
2022/05/26 10:28:16;;;;;;;6.07;2.90;;;18.20;87.80;;;;;;5067205;28;20036;-75
2022/05/26 10:30:54;;;;;;;7.05;3.28;;;18.20;88.00;;;;;;5068696;28;20028;-75
2022/05/26 10:34:08;;;;;;;5.07;2.80;;;18.10;88.20;;;;;;5034042;28;20088;-75
2022/05/26 10:36:57;;;;;;;7.47;3.00;;;18.10;88.20;;;;;;5048850;28;20025;-74
2022/05/26 10:39:38;;;;;;;5.18;2.92;;;18.10;88.30;;;;;;5052708;28;20060;-75
2022/05/26 10:42:31;;;;;;;6.28;3.03;;;18.10;88.50;;;;;;5053184;28;20389;-75
2022/05/26 10:45:10;;;;;;;6.50;3.35;;;18.10;88.50;;;;;;5018238;28;20028;-75
2022/05/26 10:47:48;;;;;;;4.85;3.00;;;18.10;88.50;;;;;;5052861;28;20024;-75
2022/05/26 10:50:29;;;;;;;5.53;3.03;;;18.10;88.50;;;;;;5054268;28;20031;-75
2022/05/26 10:53:03;;;;;;;5.63;2.90;;;18.20;88.40;;;;;;5053153;28;20032;-74
2022/05/26 10:55:47;;;;;;;5.65;3.13;;;18.20;88.50;;;;;;5049500;28;20021;-75
2022/05/26 10:58:37;;;;;;;8.50;3.08;;;18.20;88.50;;;;;;5032003;28;20021;-75
2022/05/26 11:01:10;;;;;;;6.15;3.42;;;18.20;88.40;;;;;;5039017;28;20584;-75
2022/05/26 11:03:47;;;;;;;6.03;3.17;;;18.20;88.50;;;;;;5031350;28;20052;-75
2022/05/26 11:06:28;;;;;;;6.13;3.30;;;18.20;88.40;;;;;;5049698;28;20112;-75
2022/05/26 11:08:56;;;;;;;;;;;18.20;88.20;;;;;;5033302;28;20474;-75
2022/05/26 11:11:34;;;;;;;5.55;3.10;;;18.30;88.10;;;;;;5034059;28;19905;-75
2022/05/26 11:17:21;;;;;;;5.38;3.13;;;18.30;88.10;;;;;;5049113;28;20064;-74
2022/05/26 11:19:49;;;;;;;6.22;3.00;;;18.20;88.20;;;;;;5033862;28;20497;-76
2022/05/26 11:22:16;;;;;;;7.57;3.33;;;18.20;88.30;;;;;;5032843;28;20029;-75
2022/05/26 11:24:47;;;;;;;7.22;3.28;;;18.20;88.20;;;;;;5032065;28;20075;-71
2022/05/26 11:27:26;;;;;;;6.65;3.40;;;18.20;88.30;;;;;;5032313;28;20057;-72
2022/05/26 11:29:56;;;;;;;5.32;2.90;;;18.20;88.20;;;;;;5048798;28;20034;-75
2022/05/26 11:38:31;;;;;;;5.93;3.13;;;18.20;88.40;;;;;;5033512;28;20517;-74
2022/05/26 11:41:00;;;;;;;6.88;3.03;;;18.20;88.40;;;;;;5033489;28;20024;-71
2022/05/26 11:43:29;;;;;;;5.47;3.10;;;18.20;88.40;;;;;;5033476;28;20025;-71
2022/05/26 11:45:57;;;;;;;5.32;3.03;;;18.20;88.40;;;;;;5048838;28;20108;-75
2022/05/26 11:48:32;;;;;;;5.85;3.75;;;18.20;88.40;;;;;;5048259;28;20041;-75
2022/05/26 11:51:02;;;;;;;5.22;3.03;;;18.20;88.40;;;;;;5070210;28;20393;-74
2022/05/26 11:53:27;;;;;;;5.65;3.20;;;18.20;88.50;;;;;;5071057;28;20033;-75
2022/05/26 11:55:55;;;;;;;5.50;3.15;;;18.20;88.50;;;;;;5063205;28;20501;-74
2022/05/26 11:58:32;;;;;;;6.15;3.42;;;18.20;88.60;;;;;;5057417;28;20075;-75
2022/05/26 12:01:15;;;;;;;6.90;3.15;;;18.20;88.70;;;;;;5049762;28;20024;-74
2022/05/26 12:04:00;;;;;;;6.15;3.25;;;18.20;88.70;;;;;;5067855;28;20021;-74
2022/05/26 12:06:37;;;;;;;6.47;3.30;;;18.20;88.50;;;;;;5062675;28;20370;-75
2022/05/26 12:09:19;;;;;;;5.50;2.90;;;18.20;88.20;;;;;;5057934;28;20036;-75
2022/05/26 12:11:55;;;;;;;5.78;3.22;;;18.30;88.10;;;;;;5042544;28;20035;-75
2022/05/26 12:14:22;;;;;;;5.85;2.92;;;18.30;87.90;;;;;;5062902;28;20025;-74
2022/05/26 12:16:48;;;;;;;6.35;3.65;;;18.30;87.80;;;;;;5039677;28;20035;-74
2022/05/26 12:19:43;;;;;;;6.05;3.10;;;18.30;87.90;;;;;;5058753;28;20104;-75
2022/05/26 12:22:32;;;;;;;5.63;3.10;;;18.30;88.00;;;;;;5047923;28;20503;-74
2022/05/26 12:25:17;;;;;;;5.93;2.97;;;18.30;88.10;;;;;;5050156;28;20078;-75
2022/05/26 12:27:48;;;;;;;5.97;3.10;;;18.20;88.30;;;;;;5051752;28;20029;-76
2022/05/26 12:30:34;;;;;;;;;;;18.20;88.50;;;;;;5064826;28;20103;-74
2022/05/26 12:33:08;;;;;;;5.20;2.90;;;18.20;88.60;;;;;;5029811;28;20006;-76
2022/05/26 12:35:44;;;;;;;5.07;3.00;;;18.20;88.70;;;;;;5067650;28;20137;-75
2022/05/26 12:38:29;;;;;;;5.32;3.00;;;18.10;88.70;;;;;;5053665;28;20052;-74
2022/05/26 12:41:04;;;;;;;4.78;2.83;;;18.20;88.80;;;;;;5061742;28;20021;-70
2022/05/26 12:43:54;;;;;;;7.28;3.20;;;18.10;88.70;;;;;;5049564;28;20495;-71
2022/05/26 12:46:57;;;;;;;6.68;3.08;;;18.10;89.10;;;;;;5066759;28;20405;-76
2022/05/26 12:49:41;;;;;;;6.80;2.75;;;18.10;88.20;;;;;;5067811;28;20028;-76
2022/05/26 12:52:17;;;;;;;7.38;3.10;;;18.10;88.20;;;;;;5055209;28;20113;-76
2022/05/26 12:54:55;;;;;;;7.00;3.13;;;18.20;88.10;;;;;;5066141;28;20024;-71
2022/05/26 12:57:24;;;;;;;6.00;2.80;;;18.20;88.00;;;;;;5050807;28;20474;-75
2022/05/26 12:59:50;;;;;;;6.40;3.30;;;18.20;87.90;;;;;;5046958;28;20130;-75
2022/05/26 13:02:24;;;;;;;5.85;3.05;;;18.20;87.60;;;;;;5051354;28;20033;-75
2022/05/26 13:04:51;;;;;;;7.35;3.17;;;18.30;87.60;;;;;;5051872;28;20025;-76
2022/05/26 13:07:18;;;;;;;6.63;3.08;;;18.30;87.40;;;;;;5062823;28;20029;-75
2022/05/26 13:09:48;;;;;;;6.10;2.90;;;18.30;87.20;;;;;;5062921;28;20097;-71
2022/05/26 13:12:22;;;;;;;5.90;2.92;;;18.30;87.00;;;;;;5049577;28;20029;-76
2022/05/26 13:14:56;;;;;;;4.93;2.83;;;18.40;87.00;;;;;;5065616;28;20032;-74
2022/05/26 13:17:24;;;;;;;7.20;3.30;;;18.30;87.00;;;;;;5038432;28;20049;-75
2022/05/26 13:19:54;;;;;;;8.60;3.05;;;18.30;87.10;;;;;;5052693;28;20448;-75
2022/05/26 13:22:32;;;;;;;6.65;2.75;;;18.30;87.30;;;;;;5052582;28;20017;-75
2022/05/26 13:25:05;;;;;;;5.13;2.75;;;18.30;87.40;;;;;;5052716;28;20021;-76
2022/05/26 13:27:51;;;;;;;5.43;2.90;;;18.30;87.40;;;;;;5034434;28;20037;-76
2022/05/26 13:33:19;;;;;;;5.45;2.88;;;18.30;87.70;;;;;;5045421;28;20056;-74
2022/05/26 13:35:51;;;;;;;5.80;3.00;;;18.20;87.80;;;;;;5055133;28;20086;-75
2022/05/26 13:38:20;;;;;;;;;;;18.20;87.80;;;;;;5049374;28;20029;-75
2022/05/26 13:40:46;;;;;;;5.82;3.08;;;18.30;87.90;;;;;;5038135;28;19908;-75
2022/05/26 13:43:12;;;;;;;7.25;3.38;;;18.20;87.90;;;;;;5052468;28;20112;-73
2022/05/26 13:45:41;;;;;;;5.15;2.72;;;18.20;88.10;;;;;;5056990;28;20108;-75
2022/05/26 13:48:30;;;;;;;6.93;3.33;;;18.20;88.00;;;;;;5051622;28;20028;-75
2022/05/26 13:51:20;;;;;;;5.93;2.85;;;18.20;88.10;;;;;;5054620;28;20036;-75
2022/05/26 13:53:53;;;;;;;6.05;2.90;;;18.10;88.10;;;;;;5054799;28;20041;-75